sensor_id;sensor_type;location;lat;lon;timestamp;temperature;humidity
7902;DHT22;3996;49.674;10.716;2024-03-08T00:00:11;2.80;24.10
7902;DHT22;3996;49.674;10.716;2024-03-08T00:02:40;2.70;24.10
7902;DHT22;3996;49.674;10.716;2024-03-08T00:05:07;2.70;24.50
7902;DHT22;3996;49.674;10.716;2024-03-08T00:07:36;2.60;24.30
7902;DHT22;3996;49.674;10.716;2024-03-08T00:10:06;2.60;24.50
7902;DHT22;3996;49.674;10.716;2024-03-08T00:12:45;2.60;24.70
7902;DHT22;3996;49.674;10.716;2024-03-08T00:15:13;2.60;24.70
7902;DHT22;3996;49.674;10.716;2024-03-08T00:17:39;2.50;24.90
7902;DHT22;3996;49.674;10.716;2024-03-08T00:20:06;2.50;24.90
7902;DHT22;3996;49.674;10.716;2024-03-08T00:22:37;2.50;25.10
7902;DHT22;3996;49.674;10.716;2024-03-08T00:25:04;2.50;25.40
7902;DHT22;3996;49.674;10.716;2024-03-08T00:27:29;2.50;25.70
7902;DHT22;3996;49.674;10.716;2024-03-08T00:29:59;2.40;25.60
7902;DHT22;3996;49.674;10.716;2024-03-08T00:32:24;2.40;25.60
7902;DHT22;3996;49.674;10.716;2024-03-08T00:34:50;2.40;25.50
7902;DHT22;3996;49.674;10.716;2024-03-08T00:37:20;2.50;25.80
7902;DHT22;3996;49.674;10.716;2024-03-08T00:39:47;2.50;25.60
7902;DHT22;3996;49.674;10.716;2024-03-08T00:42:13;2.60;25.30
7902;DHT22;3996;49.674;10.716;2024-03-08T00:44:39;2.50;25.50
7902;DHT22;3996;49.674;10.716;2024-03-08T00:47:05;2.60;25.50
7902;DHT22;3996;49.674;10.716;2024-03-08T00:49:31;2.50;25.40
7902;DHT22;3996;49.674;10.716;2024-03-08T00:51:56;2.60;25.30
7902;DHT22;3996;49.674;10.716;2024-03-08T00:54:22;2.50;24.90
7902;DHT22;3996;49.674;10.716;2024-03-08T00:56:47;2.50;25.10
7902;DHT22;3996;49.674;10.716;2024-03-08T00:59:13;2.50;25.20
7902;DHT22;3996;49.674;10.716;2024-03-08T01:01:40;2.50;25.40
7902;DHT22;3996;49.674;10.716;2024-03-08T01:04:06;2.50;25.30
7902;DHT22;3996;49.674;10.716;2024-03-08T01:06:33;2.50;25.20
7902;DHT22;3996;49.674;10.716;2024-03-08T01:08:59;2.40;25.50
7902;DHT22;3996;49.674;10.716;2024-03-08T01:11:24;2.40;25.90
7902;DHT22;3996;49.674;10.716;2024-03-08T01:13:50;2.30;26.00
7902;DHT22;3996;49.674;10.716;2024-03-08T01:16:16;2.20;26.30
7902;DHT22;3996;49.674;10.716;2024-03-08T01:18:43;2.10;26.60
7902;DHT22;3996;49.674;10.716;2024-03-08T01:21:08;2.10;26.80
7902;DHT22;3996;49.674;10.716;2024-03-08T01:23:34;2.10;26.80
7902;DHT22;3996;49.674;10.716;2024-03-08T01:26:00;2.10;26.30
7902;DHT22;3996;49.674;10.716;2024-03-08T01:28:27;2.20;26.50
7902;DHT22;3996;49.674;10.716;2024-03-08T01:30:53;2.10;26.30
7902;DHT22;3996;49.674;10.716;2024-03-08T01:33:24;2.20;26.30
7902;DHT22;3996;49.674;10.716;2024-03-08T01:35:51;2.20;26.00
7902;DHT22;3996;49.674;10.716;2024-03-08T01:38:17;2.20;26.00
7902;DHT22;3996;49.674;10.716;2024-03-08T01:40:42;2.20;26.00
7902;DHT22;3996;49.674;10.716;2024-03-08T01:43:21;2.20;26.00
7902;DHT22;3996;49.674;10.716;2024-03-08T01:45:48;2.20;26.10
7902;DHT22;3996;49.674;10.716;2024-03-08T01:48:15;2.10;25.90
7902;DHT22;3996;49.674;10.716;2024-03-08T01:50:42;2.10;26.30
7902;DHT22;3996;49.674;10.716;2024-03-08T01:53:10;2.10;26.20
7902;DHT22;3996;49.674;10.716;2024-03-08T01:55:37;2.10;26.00
7902;DHT22;3996;49.674;10.716;2024-03-08T01:58:04;2.10;26.30
7902;DHT22;3996;49.674;10.716;2024-03-08T02:00:31;2.10;26.30
7902;DHT22;3996;49.674;10.716;2024-03-08T02:02:57;2.10;25.90
7902;DHT22;3996;49.674;10.716;2024-03-08T02:05:23;2.10;26.00
7902;DHT22;3996;49.674;10.716;2024-03-08T02:07:49;1.90;26.30
7902;DHT22;3996;49.674;10.716;2024-03-08T02:10:14;1.90;26.20
7902;DHT22;3996;49.674;10.716;2024-03-08T02:12:40;1.90;26.60
7902;DHT22;3996;49.674;10.716;2024-03-08T02:15:06;1.80;26.50
7902;DHT22;3996;49.674;10.716;2024-03-08T02:17:32;1.80;26.50
7902;DHT22;3996;49.674;10.716;2024-03-08T02:20:01;1.80;26.50
7902;DHT22;3996;49.674;10.716;2024-03-08T02:22:30;1.80;26.50
7902;DHT22;3996;49.674;10.716;2024-03-08T02:24:58;1.80;26.50
7902;DHT22;3996;49.674;10.716;2024-03-08T02:27:26;1.70;26.50
7902;DHT22;3996;49.674;10.716;2024-03-08T02:29:55;1.80;26.50
7902;DHT22;3996;49.674;10.716;2024-03-08T02:32:21;1.70;26.50
7902;DHT22;3996;49.674;10.716;2024-03-08T02:34:48;1.70;26.80
7902;DHT22;3996;49.674;10.716;2024-03-08T02:37:13;1.60;27.20
7902;DHT22;3996;49.674;10.716;2024-03-08T02:39:39;1.50;27.50
7902;DHT22;3996;49.674;10.716;2024-03-08T02:42:04;1.60;27.40
7902;DHT22;3996;49.674;10.716;2024-03-08T02:44:30;1.60;27.60
7902;DHT22;3996;49.674;10.716;2024-03-08T02:46:55;1.60;27.70
7902;DHT22;3996;49.674;10.716;2024-03-08T02:49:21;1.60;27.30
7902;DHT22;3996;49.674;10.716;2024-03-08T02:51:47;1.60;27.80
7902;DHT22;3996;49.674;10.716;2024-03-08T02:54:12;1.60;28.10
7902;DHT22;3996;49.674;10.716;2024-03-08T02:56:38;1.50;27.80
7902;DHT22;3996;49.674;10.716;2024-03-08T02:59:03;1.50;27.80
7902;DHT22;3996;49.674;10.716;2024-03-08T03:01:29;1.60;27.60
7902;DHT22;3996;49.674;10.716;2024-03-08T03:03:55;1.60;28.00
7902;DHT22;3996;49.674;10.716;2024-03-08T03:06:20;1.60;27.60
7902;DHT22;3996;49.674;10.716;2024-03-08T03:08:46;1.60;27.90
7902;DHT22;3996;49.674;10.716;2024-03-08T03:11:12;1.50;28.20
7902;DHT22;3996;49.674;10.716;2024-03-08T03:13:39;1.50;28.30
7902;DHT22;3996;49.674;10.716;2024-03-08T03:16:05;1.50;28.10
7902;DHT22;3996;49.674;10.716;2024-03-08T03:18:31;1.50;27.90
7902;DHT22;3996;49.674;10.716;2024-03-08T03:20:58;1.50;28.70
7902;DHT22;3996;49.674;10.716;2024-03-08T03:23:24;1.50;28.40
7902;DHT22;3996;49.674;10.716;2024-03-08T03:25:51;1.50;28.40
7902;DHT22;3996;49.674;10.716;2024-03-08T03:28:17;1.40;28.30
7902;DHT22;3996;49.674;10.716;2024-03-08T03:30:45;1.40;28.60
7902;DHT22;3996;49.674;10.716;2024-03-08T03:33:11;1.50;28.60
7902;DHT22;3996;49.674;10.716;2024-03-08T03:35:41;1.50;28.30
7902;DHT22;3996;49.674;10.716;2024-03-08T03:38:08;1.40;28.40
7902;DHT22;3996;49.674;10.716;2024-03-08T03:40:34;1.40;28.90
7902;DHT22;3996;49.674;10.716;2024-03-08T03:43:03;1.30;28.90
7902;DHT22;3996;49.674;10.716;2024-03-08T03:45:29;1.30;29.20
7902;DHT22;3996;49.674;10.716;2024-03-08T03:47:55;1.30;28.90
7902;DHT22;3996;49.674;10.716;2024-03-08T03:50:21;1.30;29.00
7902;DHT22;3996;49.674;10.716;2024-03-08T03:52:50;1.30;28.80
7902;DHT22;3996;49.674;10.716;2024-03-08T03:55:15;1.30;28.70
7902;DHT22;3996;49.674;10.716;2024-03-08T03:57:41;1.20;29.00
7902;DHT22;3996;49.674;10.716;2024-03-08T04:00:07;1.20;29.30
7902;DHT22;3996;49.674;10.716;2024-03-08T04:02:38;1.20;29.30
7902;DHT22;3996;49.674;10.716;2024-03-08T04:05:08;1.30;29.30
7902;DHT22;3996;49.674;10.716;2024-03-08T04:07:35;1.30;29.10
7902;DHT22;3996;49.674;10.716;2024-03-08T04:10:04;1.20;29.50
7902;DHT22;3996;49.674;10.716;2024-03-08T04:12:32;1.20;29.60
7902;DHT22;3996;49.674;10.716;2024-03-08T04:14:57;1.10;29.50
7902;DHT22;3996;49.674;10.716;2024-03-08T04:17:23;1.00;29.50
7902;DHT22;3996;49.674;10.716;2024-03-08T04:19:52;0.90;29.60
7902;DHT22;3996;49.674;10.716;2024-03-08T04:22:22;0.80;29.70
7902;DHT22;3996;49.674;10.716;2024-03-08T04:24:48;0.90;30.70
7902;DHT22;3996;49.674;10.716;2024-03-08T04:27:14;1.00;30.70
7902;DHT22;3996;49.674;10.716;2024-03-08T04:29:40;1.00;30.40
7902;DHT22;3996;49.674;10.716;2024-03-08T04:32:06;1.00;30.10
7902;DHT22;3996;49.674;10.716;2024-03-08T04:34:34;1.00;30.00
7902;DHT22;3996;49.674;10.716;2024-03-08T04:37:03;1.00;30.10
7902;DHT22;3996;49.674;10.716;2024-03-08T04:39:30;1.00;30.50
7902;DHT22;3996;49.674;10.716;2024-03-08T04:41:59;1.00;30.70
7902;DHT22;3996;49.674;10.716;2024-03-08T04:44:25;0.90;30.70
7902;DHT22;3996;49.674;10.716;2024-03-08T04:46:51;1.00;31.10
7902;DHT22;3996;49.674;10.716;2024-03-08T04:49:17;1.00;31.50
7902;DHT22;3996;49.674;10.716;2024-03-08T04:51:42;1.00;31.80
7902;DHT22;3996;49.674;10.716;2024-03-08T04:54:10;1.00;32.40
7902;DHT22;3996;49.674;10.716;2024-03-08T04:56:35;0.90;32.10
7902;DHT22;3996;49.674;10.716;2024-03-08T04:59:01;1.00;32.20
7902;DHT22;3996;49.674;10.716;2024-03-08T05:01:27;0.90;32.60
7902;DHT22;3996;49.674;10.716;2024-03-08T05:03:52;0.80;33.10
7902;DHT22;3996;49.674;10.716;2024-03-08T05:06:20;0.90;33.00
7902;DHT22;3996;49.674;10.716;2024-03-08T05:08:46;1.00;33.20
7902;DHT22;3996;49.674;10.716;2024-03-08T05:11:12;1.00;33.00
7902;DHT22;3996;49.674;10.716;2024-03-08T05:13:40;1.00;33.70
7902;DHT22;3996;49.674;10.716;2024-03-08T05:16:06;1.00;33.70
7902;DHT22;3996;49.674;10.716;2024-03-08T05:18:33;1.10;33.70
7902;DHT22;3996;49.674;10.716;2024-03-08T05:20:59;1.10;34.10
7902;DHT22;3996;49.674;10.716;2024-03-08T05:23:24;1.10;34.30
7902;DHT22;3996;49.674;10.716;2024-03-08T05:25:53;1.10;34.30
7902;DHT22;3996;49.674;10.716;2024-03-08T05:29:10;1.00;34.60
7902;DHT22;3996;49.674;10.716;2024-03-08T05:35:43;1.00;34.90
7902;DHT22;3996;49.674;10.716;2024-03-08T05:46:04;1.00;33.40
7902;DHT22;3996;49.674;10.716;2024-03-08T05:53:26;1.00;33.30
7902;DHT22;3996;49.674;10.716;2024-03-08T05:56:14;1.10;32.90
7902;DHT22;3996;49.674;10.716;2024-03-08T05:58:40;1.10;33.40
7902;DHT22;3996;49.674;10.716;2024-03-08T06:01:06;1.10;33.70
7902;DHT22;3996;49.674;10.716;2024-03-08T06:03:36;1.20;33.50
7902;DHT22;3996;49.674;10.716;2024-03-08T06:06:02;1.20;32.90
7902;DHT22;3996;49.674;10.716;2024-03-08T06:08:27;1.30;32.30
7902;DHT22;3996;49.674;10.716;2024-03-08T06:10:55;1.30;32.70
7902;DHT22;3996;49.674;10.716;2024-03-08T06:13:21;1.50;32.80
7902;DHT22;3996;49.674;10.716;2024-03-08T06:15:46;1.50;32.40
7902;DHT22;3996;49.674;10.716;2024-03-08T06:18:12;1.60;32.90
7902;DHT22;3996;49.674;10.716;2024-03-08T06:20:38;1.80;32.20
7902;DHT22;3996;49.674;10.716;2024-03-08T06:23:03;2.00;31.40
7902;DHT22;3996;49.674;10.716;2024-03-08T06:25:29;2.00;31.10
7902;DHT22;3996;49.674;10.716;2024-03-08T06:27:55;2.10;31.20
7902;DHT22;3996;49.674;10.716;2024-03-08T06:30:20;2.20;31.20
7902;DHT22;3996;49.674;10.716;2024-03-08T06:32:46;2.50;30.40
7902;DHT22;3996;49.674;10.716;2024-03-08T06:35:12;3.10;28.70
7902;DHT22;3996;49.674;10.716;2024-03-08T06:37:37;3.90;26.20
7902;DHT22;3996;49.674;10.716;2024-03-08T06:40:04;4.60;24.00
7902;DHT22;3996;49.674;10.716;2024-03-08T06:42:30;5.20;21.70
7902;DHT22;3996;49.674;10.716;2024-03-08T06:45:01;5.60;19.90
7902;DHT22;3996;49.674;10.716;2024-03-08T06:47:32;6.20;18.80
7902;DHT22;3996;49.674;10.716;2024-03-08T06:49:58;6.50;17.50
7902;DHT22;3996;49.674;10.716;2024-03-08T06:52:24;6.90;16.30
7902;DHT22;3996;49.674;10.716;2024-03-08T06:54:49;7.40;15.30
7902;DHT22;3996;49.674;10.716;2024-03-08T06:57:17;7.50;14.30
7902;DHT22;3996;49.674;10.716;2024-03-08T06:59:43;7.90;14.10
7902;DHT22;3996;49.674;10.716;2024-03-08T07:02:09;8.30;13.00
7902;DHT22;3996;49.674;10.716;2024-03-08T07:04:35;8.50;12.50
7902;DHT22;3996;49.674;10.716;2024-03-08T07:07:04;8.80;11.90
7902;DHT22;3996;49.674;10.716;2024-03-08T07:09:29;9.10;10.80
7902;DHT22;3996;49.674;10.716;2024-03-08T07:12:14;8.90;11.00
7902;DHT22;3996;49.674;10.716;2024-03-08T07:14:50;8.90;10.80
7902;DHT22;3996;49.674;10.716;2024-03-08T07:17:16;9.50;9.70
7902;DHT22;3996;49.674;10.716;2024-03-08T07:20:05;9.80;8.90
7902;DHT22;3996;49.674;10.716;2024-03-08T07:22:46;10.20;7.50
7902;DHT22;3996;49.674;10.716;2024-03-08T07:26:05;10.20;7.00
7902;DHT22;3996;49.674;10.716;2024-03-08T07:29:21;10.80;6.20
7902;DHT22;3996;49.674;10.716;2024-03-08T07:33:00;10.80;6.90
7902;DHT22;3996;49.674;10.716;2024-03-08T07:35:30;11.30;5.90
7902;DHT22;3996;49.674;10.716;2024-03-08T07:38:20;11.30;5.10
7902;DHT22;3996;49.674;10.716;2024-03-08T07:41:01;10.60;5.10
7902;DHT22;3996;49.674;10.716;2024-03-08T07:43:59;10.50;6.20
7902;DHT22;3996;49.674;10.716;2024-03-08T07:46:33;9.10;8.70
7902;DHT22;3996;49.674;10.716;2024-03-08T07:49:08;8.40;11.50
7902;DHT22;3996;49.674;10.716;2024-03-08T07:51:36;7.80;13.00
7902;DHT22;3996;49.674;10.716;2024-03-08T07:54:03;8.10;12.40
7902;DHT22;3996;49.674;10.716;2024-03-08T07:56:30;7.80;13.30
7902;DHT22;3996;49.674;10.716;2024-03-08T07:58:56;7.40;13.00
7902;DHT22;3996;49.674;10.716;2024-03-08T08:01:22;7.40;15.50
7902;DHT22;3996;49.674;10.716;2024-03-08T08:03:48;7.60;14.10
7902;DHT22;3996;49.674;10.716;2024-03-08T08:06:16;8.00;13.80
7902;DHT22;3996;49.674;10.716;2024-03-08T08:08:42;9.00;10.40
7902;DHT22;3996;49.674;10.716;2024-03-08T08:11:08;8.90;9.30
7902;DHT22;3996;49.674;10.716;2024-03-08T08:13:34;8.20;12.80
7902;DHT22;3996;49.674;10.716;2024-03-08T08:16:02;8.30;12.70
7902;DHT22;3996;49.674;10.716;2024-03-08T08:18:27;7.90;12.30
7902;DHT22;3996;49.674;10.716;2024-03-08T08:20:55;7.40;14.10
7902;DHT22;3996;49.674;10.716;2024-03-08T08:23:20;7.80;12.30
7902;DHT22;3996;49.674;10.716;2024-03-08T08:25:46;7.80;13.40
7902;DHT22;3996;49.674;10.716;2024-03-08T08:28:16;8.50;11.40
7902;DHT22;3996;49.674;10.716;2024-03-08T08:30:43;8.40;11.20
7902;DHT22;3996;49.674;10.716;2024-03-08T08:33:09;7.60;11.90
7902;DHT22;3996;49.674;10.716;2024-03-08T08:35:38;7.70;11.60
7902;DHT22;3996;49.674;10.716;2024-03-08T08:38:07;7.70;12.80
7902;DHT22;3996;49.674;10.716;2024-03-08T08:40:35;8.30;13.40
7902;DHT22;3996;49.674;10.716;2024-03-08T08:43:04;8.70;10.50
7902;DHT22;3996;49.674;10.716;2024-03-08T08:45:30;8.60;10.60
7902;DHT22;3996;49.674;10.716;2024-03-08T08:47:56;8.50;13.40
7902;DHT22;3996;49.674;10.716;2024-03-08T08:50:22;8.80;9.70
7902;DHT22;3996;49.674;10.716;2024-03-08T08:52:52;8.00;11.80
7902;DHT22;3996;49.674;10.716;2024-03-08T08:55:18;8.40;11.00
7902;DHT22;3996;49.674;10.716;2024-03-08T08:57:47;8.60;9.10
7902;DHT22;3996;49.674;10.716;2024-03-08T09:00:13;8.60;10.40
7902;DHT22;3996;49.674;10.716;2024-03-08T09:02:42;8.50;9.80
7902;DHT22;3996;49.674;10.716;2024-03-08T09:05:08;8.50;9.90
7902;DHT22;3996;49.674;10.716;2024-03-08T09:07:34;8.60;10.60
7902;DHT22;3996;49.674;10.716;2024-03-08T09:10:03;8.80;9.90
7902;DHT22;3996;49.674;10.716;2024-03-08T09:12:28;9.10;8.70
7902;DHT22;3996;49.674;10.716;2024-03-08T09:14:54;8.60;9.10
7902;DHT22;3996;49.674;10.716;2024-03-08T09:17:20;8.70;8.90
7902;DHT22;3996;49.674;10.716;2024-03-08T09:19:49;8.00;9.80
7902;DHT22;3996;49.674;10.716;2024-03-08T09:22:15;8.10;10.30
7902;DHT22;3996;49.674;10.716;2024-03-08T09:24:41;8.60;10.10
7902;DHT22;3996;49.674;10.716;2024-03-08T09:27:08;8.60;9.10
7902;DHT22;3996;49.674;10.716;2024-03-08T09:29:35;8.60;10.00
7902;DHT22;3996;49.674;10.716;2024-03-08T09:32:01;8.40;9.00
7902;DHT22;3996;49.674;10.716;2024-03-08T09:34:29;8.30;10.20
7902;DHT22;3996;49.674;10.716;2024-03-08T09:37:25;8.80;8.80
7902;DHT22;3996;49.674;10.716;2024-03-08T09:39:50;8.80;9.00
7902;DHT22;3996;49.674;10.716;2024-03-08T09:46:06;8.70;10.50
7902;DHT22;3996;49.674;10.716;2024-03-08T09:49:23;8.90;7.90
7902;DHT22;3996;49.674;10.716;2024-03-08T09:51:50;8.80;9.90
7902;DHT22;3996;49.674;10.716;2024-03-08T09:54:16;8.50;10.30
7902;DHT22;3996;49.674;10.716;2024-03-08T09:56:43;8.70;8.60
7902;DHT22;3996;49.674;10.716;2024-03-08T09:59:17;8.10;9.80
7902;DHT22;3996;49.674;10.716;2024-03-08T10:02:14;8.60;9.60
7902;DHT22;3996;49.674;10.716;2024-03-08T10:04:40;8.40;9.20
7902;DHT22;3996;49.674;10.716;2024-03-08T10:07:16;8.30;8.60
7902;DHT22;3996;49.674;10.716;2024-03-08T10:09:41;8.60;9.40
7902;DHT22;3996;49.674;10.716;2024-03-08T10:12:12;8.90;8.60
7902;DHT22;3996;49.674;10.716;2024-03-08T10:14:39;8.50;8.10
7902;DHT22;3996;49.674;10.716;2024-03-08T10:17:05;8.40;10.00
7902;DHT22;3996;49.674;10.716;2024-03-08T10:19:30;8.50;8.80
7902;DHT22;3996;49.674;10.716;2024-03-08T10:21:57;7.90;8.20
7902;DHT22;3996;49.674;10.716;2024-03-08T10:24:24;8.00;8.90
7902;DHT22;3996;49.674;10.716;2024-03-08T10:26:53;8.20;9.40
7902;DHT22;3996;49.674;10.716;2024-03-08T10:29:23;8.40;9.00
7902;DHT22;3996;49.674;10.716;2024-03-08T10:31:49;8.50;9.10
7902;DHT22;3996;49.674;10.716;2024-03-08T10:34:17;8.70;8.60
7902;DHT22;3996;49.674;10.716;2024-03-08T10:36:42;8.50;8.40
7902;DHT22;3996;49.674;10.716;2024-03-08T10:39:22;8.40;8.20
7902;DHT22;3996;49.674;10.716;2024-03-08T10:41:56;8.70;8.40
7902;DHT22;3996;49.674;10.716;2024-03-08T10:47:01;8.80;8.10
7902;DHT22;3996;49.674;10.716;2024-03-08T10:49:39;9.00;7.80
7902;DHT22;3996;49.674;10.716;2024-03-08T10:52:09;9.30;7.30
7902;DHT22;3996;49.674;10.716;2024-03-08T10:54:37;9.40;7.50
7902;DHT22;3996;49.674;10.716;2024-03-08T10:57:05;9.20;6.80
7902;DHT22;3996;49.674;10.716;2024-03-08T10:59:32;9.60;7.00
7902;DHT22;3996;49.674;10.716;2024-03-08T11:01:59;9.60;6.90
7902;DHT22;3996;49.674;10.716;2024-03-08T11:04:25;9.40;7.10
7902;DHT22;3996;49.674;10.716;2024-03-08T11:06:51;9.20;7.70
7902;DHT22;3996;49.674;10.716;2024-03-08T11:09:35;9.40;6.80
7902;DHT22;3996;49.674;10.716;2024-03-08T11:12:24;9.20;7.60
7902;DHT22;3996;49.674;10.716;2024-03-08T11:14:52;9.40;7.10
7902;DHT22;3996;49.674;10.716;2024-03-08T11:19:55;9.60;7.50
7902;DHT22;3996;49.674;10.716;2024-03-08T11:22:23;9.30;6.50
7902;DHT22;3996;49.674;10.716;2024-03-08T11:24:52;9.50;6.30
7902;DHT22;3996;49.674;10.716;2024-03-08T11:27:18;9.60;6.60
7902;DHT22;3996;49.674;10.716;2024-03-08T11:29:59;9.80;5.10
7902;DHT22;3996;49.674;10.716;2024-03-08T11:32:28;9.90;4.70
7902;DHT22;3996;49.674;10.716;2024-03-08T11:34:54;10.00;4.50
7902;DHT22;3996;49.674;10.716;2024-03-08T11:37:21;10.00;4.10
7902;DHT22;3996;49.674;10.716;2024-03-08T11:39:48;9.90;4.70
7902;DHT22;3996;49.674;10.716;2024-03-08T11:42:15;9.70;5.50
7902;DHT22;3996;49.674;10.716;2024-03-08T11:44:43;9.80;4.50
7902;DHT22;3996;49.674;10.716;2024-03-08T11:47:10;10.00;3.10
7902;DHT22;3996;49.674;10.716;2024-03-08T11:49:37;10.00;4.30
7902;DHT22;3996;49.674;10.716;2024-03-08T11:52:03;10.50;4.10
7902;DHT22;3996;49.674;10.716;2024-03-08T11:54:29;10.50;3.10
7902;DHT22;3996;49.674;10.716;2024-03-08T11:56:59;10.20;2.60
7902;DHT22;3996;49.674;10.716;2024-03-08T11:59:27;10.00;2.60
7902;DHT22;3996;49.674;10.716;2024-03-08T12:01:59;10.30;5.10
7902;DHT22;3996;49.674;10.716;2024-03-08T12:04:24;10.80;4.10
7902;DHT22;3996;49.674;10.716;2024-03-08T12:06:50;10.60;4.00
7902;DHT22;3996;49.674;10.716;2024-03-08T12:09:16;10.60;3.10
7902;DHT22;3996;49.674;10.716;2024-03-08T12:11:41;10.50;3.00
7902;DHT22;3996;49.674;10.716;2024-03-08T12:14:08;10.50;3.30
7902;DHT22;3996;49.674;10.716;2024-03-08T12:16:33;10.80;3.30
7902;DHT22;3996;49.674;10.716;2024-03-08T12:19:00;10.80;2.10
7902;DHT22;3996;49.674;10.716;2024-03-08T12:21:26;10.50;1.90
7902;DHT22;3996;49.674;10.716;2024-03-08T12:24:08;10.80;2.10
7902;DHT22;3996;49.674;10.716;2024-03-08T12:26:36;11.00;1.20
7902;DHT22;3996;49.674;10.716;2024-03-08T12:29:24;10.90;1.60
7902;DHT22;3996;49.674;10.716;2024-03-08T12:31:58;11.00;1.00
7902;DHT22;3996;49.674;10.716;2024-03-08T12:34:26;11.10;1.00
7902;DHT22;3996;49.674;10.716;2024-03-08T12:36:54;11.00;1.60
7902;DHT22;3996;49.674;10.716;2024-03-08T12:39:21;11.00;1.80
7902;DHT22;3996;49.674;10.716;2024-03-08T12:41:53;11.00;1.00
7902;DHT22;3996;49.674;10.716;2024-03-08T12:44:20;11.10;1.00
7902;DHT22;3996;49.674;10.716;2024-03-08T12:46:47;11.20;1.90
7902;DHT22;3996;49.674;10.716;2024-03-08T12:49:13;11.20;1.00
7902;DHT22;3996;49.674;10.716;2024-03-08T12:51:45;11.30;1.00
7902;DHT22;3996;49.674;10.716;2024-03-08T12:54:10;11.30;1.00
7902;DHT22;3996;49.674;10.716;2024-03-08T12:56:36;11.40;1.50
7902;DHT22;3996;49.674;10.716;2024-03-08T12:59:04;12.00;1.00
7902;DHT22;3996;49.674;10.716;2024-03-08T13:01:30;12.10;1.00
7902;DHT22;3996;49.674;10.716;2024-03-08T13:03:59;12.10;1.00
7902;DHT22;3996;49.674;10.716;2024-03-08T13:06:28;12.00;1.00
7902;DHT22;3996;49.674;10.716;2024-03-08T13:08:54;12.00;1.00
7902;DHT22;3996;49.674;10.716;2024-03-08T13:11:21;12.10;1.00
7902;DHT22;3996;49.674;10.716;2024-03-08T13:13:47;12.20;1.00
7902;DHT22;3996;49.674;10.716;2024-03-08T13:16:13;11.80;1.00
7902;DHT22;3996;49.674;10.716;2024-03-08T13:18:42;11.80;1.00
7902;DHT22;3996;49.674;10.716;2024-03-08T13:21:09;11.90;1.00
7902;DHT22;3996;49.674;10.716;2024-03-08T13:23:39;12.00;1.00
7902;DHT22;3996;49.674;10.716;2024-03-08T13:26:10;11.80;1.00
7902;DHT22;3996;49.674;10.716;2024-03-08T13:28:51;11.80;1.00
7902;DHT22;3996;49.674;10.716;2024-03-08T13:31:22;12.10;1.00
7902;DHT22;3996;49.674;10.716;2024-03-08T13:33:47;12.20;1.00
7902;DHT22;3996;49.674;10.716;2024-03-08T13:36:14;12.40;1.00
7902;DHT22;3996;49.674;10.716;2024-03-08T13:38:49;12.40;1.00
7902;DHT22;3996;49.674;10.716;2024-03-08T13:41:15;12.20;1.00
7902;DHT22;3996;49.674;10.716;2024-03-08T13:43:46;11.80;1.00
7902;DHT22;3996;49.674;10.716;2024-03-08T13:46:12;11.80;1.00
7902;DHT22;3996;49.674;10.716;2024-03-08T13:48:37;11.90;1.00
7902;DHT22;3996;49.674;10.716;2024-03-08T13:51:04;11.90;1.00
7902;DHT22;3996;49.674;10.716;2024-03-08T13:53:32;11.70;1.00
7902;DHT22;3996;49.674;10.716;2024-03-08T13:55:59;11.80;1.00
7902;DHT22;3996;49.674;10.716;2024-03-08T13:58:26;12.00;1.00
7902;DHT22;3996;49.674;10.716;2024-03-08T14:00:53;11.90;1.00
7902;DHT22;3996;49.674;10.716;2024-03-08T14:03:19;11.80;1.00
7902;DHT22;3996;49.674;10.716;2024-03-08T14:05:46;11.90;1.00
7902;DHT22;3996;49.674;10.716;2024-03-08T14:08:12;11.70;1.00
7902;DHT22;3996;49.674;10.716;2024-03-08T14:10:38;11.70;1.00
7902;DHT22;3996;49.674;10.716;2024-03-08T14:13:04;11.70;1.00
7902;DHT22;3996;49.674;10.716;2024-03-08T14:15:32;11.90;1.00
7902;DHT22;3996;49.674;10.716;2024-03-08T14:17:57;12.20;1.00
7902;DHT22;3996;49.674;10.716;2024-03-08T14:20:24;12.40;1.00
7902;DHT22;3996;49.674;10.716;2024-03-08T14:22:56;12.30;1.00
7902;DHT22;3996;49.674;10.716;2024-03-08T14:25:22;12.40;1.00
7902;DHT22;3996;49.674;10.716;2024-03-08T14:27:50;12.30;1.00
7902;DHT22;3996;49.674;10.716;2024-03-08T14:30:15;12.40;1.00
7902;DHT22;3996;49.674;10.716;2024-03-08T14:32:58;12.30;1.00
7902;DHT22;3996;49.674;10.716;2024-03-08T14:35:25;12.00;1.00
7902;DHT22;3996;49.674;10.716;2024-03-08T14:37:51;12.20;1.00
7902;DHT22;3996;49.674;10.716;2024-03-08T14:40:17;12.10;1.00
7902;DHT22;3996;49.674;10.716;2024-03-08T14:42:48;11.80;1.00
7902;DHT22;3996;49.674;10.716;2024-03-08T14:45:15;11.90;1.00
7902;DHT22;3996;49.674;10.716;2024-03-08T14:47:41;12.00;1.00
7902;DHT22;3996;49.674;10.716;2024-03-08T14:50:08;12.30;1.00
7902;DHT22;3996;49.674;10.716;2024-03-08T14:52:35;12.20;1.00
7902;DHT22;3996;49.674;10.716;2024-03-08T14:55:01;12.10;1.00
7902;DHT22;3996;49.674;10.716;2024-03-08T14:57:28;12.00;1.00
7902;DHT22;3996;49.674;10.716;2024-03-08T14:59:54;12.00;1.00
7902;DHT22;3996;49.674;10.716;2024-03-08T15:02:19;11.90;1.00
7902;DHT22;3996;49.674;10.716;2024-03-08T15:04:48;11.90;1.00
7902;DHT22;3996;49.674;10.716;2024-03-08T15:07:22;11.80;1.00
7902;DHT22;3996;49.674;10.716;2024-03-08T15:09:48;11.60;1.20
7902;DHT22;3996;49.674;10.716;2024-03-08T15:12:14;11.60;1.00
7902;DHT22;3996;49.674;10.716;2024-03-08T15:14:40;11.40;1.00
7902;DHT22;3996;49.674;10.716;2024-03-08T15:17:09;11.40;1.00
7902;DHT22;3996;49.674;10.716;2024-03-08T15:19:38;11.30;1.00
7902;DHT22;3996;49.674;10.716;2024-03-08T15:22:04;11.40;1.00
7902;DHT22;3996;49.674;10.716;2024-03-08T15:24:30;11.40;1.00
7902;DHT22;3996;49.674;10.716;2024-03-08T15:26:56;11.30;1.00
7902;DHT22;3996;49.674;10.716;2024-03-08T15:29:23;11.30;1.00
7902;DHT22;3996;49.674;10.716;2024-03-08T15:31:52;11.30;1.00
7902;DHT22;3996;49.674;10.716;2024-03-08T15:34:20;11.30;1.70
7902;DHT22;3996;49.674;10.716;2024-03-08T15:36:50;11.20;1.20
7902;DHT22;3996;49.674;10.716;2024-03-08T15:39:20;11.20;1.30
7902;DHT22;3996;49.674;10.716;2024-03-08T15:41:49;11.10;1.00
7902;DHT22;3996;49.674;10.716;2024-03-08T15:44:15;11.10;1.00
7902;DHT22;3996;49.674;10.716;2024-03-08T15:46:42;11.10;1.00
7902;DHT22;3996;49.674;10.716;2024-03-08T15:49:07;11.00;1.60
7902;DHT22;3996;49.674;10.716;2024-03-08T15:51:34;11.00;1.90
7902;DHT22;3996;49.674;10.716;2024-03-08T15:54:02;11.00;1.60
7902;DHT22;3996;49.674;10.716;2024-03-08T15:56:30;11.00;2.20
7902;DHT22;3996;49.674;10.716;2024-03-08T15:58:57;11.00;1.60
7902;DHT22;3996;49.674;10.716;2024-03-08T16:01:23;11.00;2.20
7902;DHT22;3996;49.674;10.716;2024-03-08T16:03:50;10.90;1.60
7902;DHT22;3996;49.674;10.716;2024-03-08T16:06:19;10.80;2.10
7902;DHT22;3996;49.674;10.716;2024-03-08T16:08:48;10.70;2.30
7902;DHT22;3996;49.674;10.716;2024-03-08T16:11:14;10.60;2.60
7902;DHT22;3996;49.674;10.716;2024-03-08T16:13:42;10.60;3.50
7902;DHT22;3996;49.674;10.716;2024-03-08T16:16:08;10.60;3.00
7902;DHT22;3996;49.674;10.716;2024-03-08T16:18:33;10.50;3.60
7902;DHT22;3996;49.674;10.716;2024-03-08T16:21:05;10.40;3.70
7902;DHT22;3996;49.674;10.716;2024-03-08T16:23:32;10.40;3.60
7902;DHT22;3996;49.674;10.716;2024-03-08T16:25:58;10.30;4.20
7902;DHT22;3996;49.674;10.716;2024-03-08T16:28:24;10.30;4.10
7902;DHT22;3996;49.674;10.716;2024-03-08T16:30:54;10.20;4.50
7902;DHT22;3996;49.674;10.716;2024-03-08T16:33:20;10.10;4.50
7902;DHT22;3996;49.674;10.716;2024-03-08T16:35:46;10.00;4.70
7902;DHT22;3996;49.674;10.716;2024-03-08T16:38:12;10.00;5.20